Time;durP1;ratioP1;P1;durP2;ratioP2;P2;SDS_P1;SDS_P2;PMS_P1;PMS_P2;Temp;Humidity;BMP_temperature;BMP_pressure;BME280_temperature;BME280_humidity;BME280_pressure;Samples;Min_cycle;Max_cycle;Signal;HPM_P1;HPM_P2
2022/01/29 00:01:51;;;;;;;17.85;6.00;;;4.20;99.90;;;;;;5008530;28;20033;-82
2022/01/29 00:04:17;;;;;;;25.88;6.47;;;4.10;99.90;;;;;;5025133;28;20396;-81
2022/01/29 00:06:43;;;;;;;16.50;5.28;;;4.00;99.90;;;;;;5005362;28;20040;-82
2022/01/29 00:09:13;;;;;;;24.52;6.40;;;4.00;99.90;;;;;;5005401;28;20095;-83
2022/01/29 00:11:39;;;;;;;21.92;6.43;;;4.00;99.90;;;;;;5025511;28;20029;-83
2022/01/29 00:14:06;;;;;;;20.58;5.72;;;4.10;99.90;;;;;;5041677;28;20025;-82
2022/01/29 00:16:32;;;;;;;20.13;6.00;;;4.00;99.90;;;;;;5025039;28;20041;-82
2022/01/29 00:18:58;;;;;;;26.67;6.40;;;4.10;99.90;;;;;;5025259;28;20065;-83
2022/01/29 00:21:23;;;;;;;19.38;5.65;;;4.10;99.90;;;;;;5059041;28;20455;-83
2022/01/29 00:23:49;;;;;;;17.00;5.85;;;4.30;99.90;;;;;;5062952;28;20040;-81
2022/01/29 00:26:16;;;;;;;21.42;6.72;;;4.10;99.90;;;;;;5021455;28;20396;-79
2022/01/29 00:28:41;;;;;;;16.33;6.10;;;4.20;99.90;;;;;;5025518;28;20045;-80
2022/01/29 00:31:10;;;;;;;20.77;6.85;;;4.20;99.90;;;;;;5019059;28;20525;-80
2022/01/29 00:33:37;;;;;;;18.10;5.47;;;4.20;99.90;;;;;;5043983;28;20021;-80
2022/01/29 00:36:04;;;;;;;30.77;8.55;;;4.10;99.90;;;;;;5063097;28;20086;-81
2022/01/29 00:38:30;;;;;;;18.60;6.25;;;4.00;99.90;;;;;;5041947;28;20033;-81
2022/01/29 00:40:55;;;;;;;25.52;7.68;;;4.10;99.90;;;;;;5025393;28;20033;-79
2022/01/29 00:43:21;;;;;;;15.57;5.68;;;4.00;99.90;;;;;;5041781;28;20081;-80
2022/01/29 00:45:47;;;;;;;21.83;5.75;;;4.00;99.90;;;;;;5007240;28;20044;-82
2022/01/29 00:48:12;;;;;;;21.42;6.13;;;4.10;99.90;;;;;;5023675;28;20128;-81
2022/01/29 00:50:38;;;;;;;19.73;6.25;;;4.10;99.90;;;;;;5042072;28;20481;-80
2022/01/29 00:53:04;;;;;;;17.58;6.43;;;4.20;99.90;;;;;;5035513;28;20039;-81
2022/01/29 00:55:29;;;;;;;16.15;6.25;;;4.20;99.90;;;;;;5068267;28;20041;-81
2022/01/29 00:57:55;;;;;;;15.32;5.70;;;4.20;99.90;;;;;;5023556;28;20109;-79
2022/01/29 01:00:20;;;;;;;18.35;6.38;;;4.10;99.90;;;;;;5038330;28;20036;-78
2022/01/29 01:02:46;;;;;;;30.58;6.35;;;4.10;99.90;;;;;;5037451;28;20112;-79
2022/01/29 01:05:12;;;;;;;16.63;5.55;;;4.10;99.90;;;;;;5018004;28;20037;-79
2022/01/29 01:07:38;;;;;;;23.55;6.22;;;4.10;99.90;;;;;;5002230;28;20059;-78
2022/01/29 01:10:08;;;;;;;15.02;6.18;;;4.20;99.90;;;;;;5036334;28;20594;-81
2022/01/29 01:12:34;;;;;;;24.08;6.90;;;4.20;99.90;;;;;;5039117;28;20040;-79
2022/01/29 01:14:59;;;;;;;18.83;6.95;;;4.30;99.90;;;;;;5022880;28;20108;-79
2022/01/29 01:17:25;;;;;;;21.25;6.63;;;4.30;99.90;;;;;;5019960;28;20511;-78
2022/01/29 01:19:50;;;;;;;19.58;5.85;;;4.30;99.90;;;;;;5003619;28;20033;-81
2022/01/29 01:22:16;;;;;;;20.65;7.22;;;4.30;99.90;;;;;;4993207;28;20032;-81
2022/01/29 01:24:43;;;;;;;14.73;5.43;;;4.40;99.90;;;;;;5031880;28;20049;-83
2022/01/29 01:27:09;;;;;;;17.95;6.72;;;4.30;99.90;;;;;;5037698;28;20063;-81
2022/01/29 01:29:34;;;;;;;19.90;7.68;;;4.20;99.90;;;;;;5021597;28;20037;-81
2022/01/29 01:32:00;;;;;;;22.00;7.50;;;4.40;99.90;;;;;;5021432;28;20032;-82
2022/01/29 01:34:30;;;;;;;17.73;7.80;;;4.30;99.90;;;;;;5022578;28;20056;-84
2022/01/29 01:37:00;;;;;;;21.90;7.63;;;4.40;99.90;;;;;;5046717;28;20025;-81
2022/01/29 01:39:30;;;;;;;15.50;7.22;;;4.30;99.90;;;;;;5031205;28;20033;-79
2022/01/29 01:42:03;;;;;;;25.65;8.45;;;4.40;99.90;;;;;;5011347;28;20029;-79
2022/01/29 01:44:46;;;;;;;16.90;8.18;;;4.40;99.90;;;;;;5027950;28;20056;-78
2022/01/29 01:47:14;;;;;;;17.52;7.82;;;4.40;99.90;;;;;;5028434;28;20194;-80
2022/01/29 01:49:40;;;;;;;19.13;7.30;;;4.40;99.90;;;;;;5030295;28;20048;-80
2022/01/29 01:52:09;;;;;;;25.55;8.45;;;4.50;99.90;;;;;;5027482;28;20021;-79
2022/01/29 01:54:35;;;;;;;25.63;9.20;;;4.50;99.90;;;;;;5010924;28;20041;-78
2022/01/29 01:57:02;;;;;;;17.73;7.28;;;4.50;99.90;;;;;;5059127;28;20091;-79
2022/01/29 01:59:28;;;;;;;19.55;8.40;;;4.50;99.90;;;;;;5040801;28;20557;-79
2022/01/29 02:01:54;;;;;;;24.63;8.32;;;4.50;99.90;;;;;;5022459;28;20040;-80
2022/01/29 02:04:19;;;;;;;21.95;7.60;;;4.50;99.90;;;;;;5041926;28;20464;-78
2022/01/29 02:06:50;;;;;;;17.13;8.00;;;4.60;99.90;;;;;;5011955;28;20529;-80
2022/01/29 02:09:17;;;;;;;19.13;8.30;;;4.50;99.90;;;;;;5044431;28;20090;-80
2022/01/29 02:11:51;;;;;;;21.63;7.72;;;4.50;99.90;;;;;;5039663;28;20040;-78
2022/01/29 02:14:24;;;;;;;13.38;7.40;;;4.60;99.90;;;;;;5045040;28;20043;-83
2022/01/29 02:16:50;;;;;;;19.10;7.28;;;4.60;99.90;;;;;;5049056;28;20128;-81
2022/01/29 02:19:19;;;;;;;23.27;8.20;;;4.60;99.90;;;;;;5021346;28;20032;-79
2022/01/29 02:21:44;;;;;;;18.40;7.85;;;4.60;99.90;;;;;;5022008;28;20086;-80
2022/01/29 02:24:10;;;;;;;18.98;8.20;;;4.60;99.90;;;;;;5022673;28;20037;-80
2022/01/29 02:26:36;;;;;;;18.77;7.80;;;4.60;99.90;;;;;;5051176;28;20044;-81
2022/01/29 02:29:03;;;;;;;20.88;7.63;;;4.60;99.90;;;;;;5021521;28;20036;-80
2022/01/29 02:31:28;;;;;;;17.42;7.93;;;4.60;99.90;;;;;;5038659;28;20029;-81
2022/01/29 02:33:54;;;;;;;20.35;8.15;;;4.60;99.90;;;;;;5020351;28;20029;-80
2022/01/29 02:36:20;;;;;;;19.27;7.70;;;4.60;99.90;;;;;;5036916;28;20036;-79
2022/01/29 02:38:45;;;;;;;21.08;9.00;;;4.50;99.90;;;;;;5019834;28;20037;-79
2022/01/29 02:41:11;;;;;;;15.85;7.40;;;4.50;99.90;;;;;;5020748;28;20032;-80
2022/01/29 02:43:49;;;;;;;18.27;6.95;;;4.50;99.90;;;;;;5020893;28;20401;-81
2022/01/29 02:48:50;;;;;;;14.77;7.25;;;4.50;99.90;;;;;;5056065;28;20493;-80
2022/01/29 02:51:19;;;;;;;17.80;7.53;;;4.60;99.90;;;;;;5038486;28;20362;-81
2022/01/29 02:53:45;;;;;;;20.88;7.22;;;4.60;99.90;;;;;;5037945;28;20083;-81
2022/01/29 02:56:18;;;;;;;15.23;8.10;;;4.60;99.90;;;;;;5037897;28;20033;-81
2022/01/29 02:58:53;;;;;;;15.43;6.88;;;4.60;99.90;;;;;;5019765;28;20732;-80
2022/01/29 03:01:18;;;;;;;16.27;6.38;;;4.60;99.90;;;;;;5014386;28;20122;-78
2022/01/29 03:03:44;;;;;;;19.60;6.55;;;4.70;99.90;;;;;;5028864;28;20159;-80
2022/01/29 03:06:12;;;;;;;16.95;7.35;;;4.70;99.90;;;;;;5022190;28;20044;-80
2022/01/29 03:08:38;;;;;;;15.90;7.63;;;4.80;99.90;;;;;;5038273;28;20476;-81
2022/01/29 03:11:22;;;;;;;20.85;7.60;;;4.80;99.90;;;;;;5020227;28;20047;-79
2022/01/29 03:13:48;;;;;;;20.80;7.40;;;4.70;99.90;;;;;;5036279;28;20116;-79
2022/01/29 03:16:14;;;;;;;17.20;7.43;;;4.80;99.90;;;;;;5035835;28;20119;-80
2022/01/29 03:18:40;;;;;;;18.65;8.48;;;4.80;99.90;;;;;;5016188;28;20523;-81
2022/01/29 03:21:05;;;;;;;16.15;7.20;;;4.80;99.90;;;;;;5000346;28;20116;-82
2022/01/29 03:23:31;;;;;;;16.45;7.22;;;4.90;99.90;;;;;;5011343;28;20434;-82
2022/01/29 03:26:00;;;;;;;15.60;8.27;;;4.80;99.90;;;;;;5039853;28;20120;-81
2022/01/29 03:28:28;;;;;;;15.10;8.15;;;4.80;99.90;;;;;;5040213;28;20029;-82
2022/01/29 03:30:55;;;;;;;20.58;8.35;;;4.80;99.90;;;;;;5039601;28;20119;-81
2022/01/29 03:33:21;;;;;;;10.80;7.15;;;4.80;99.90;;;;;;5036356;28;20032;-80
2022/01/29 03:35:47;;;;;;;15.50;7.95;;;4.80;99.90;;;;;;5003241;28;20037;-81
2022/01/29 03:38:13;;;;;;;14.95;8.30;;;4.80;99.90;;;;;;5016773;28;20124;-81
2022/01/29 03:40:40;;;;;;;11.30;7.25;;;4.80;99.90;;;;;;5001636;28;20120;-79
2022/01/29 03:43:09;;;;;;;14.70;7.63;;;4.80;99.90;;;;;;5019776;28;20167;-80
2022/01/29 03:45:35;;;;;;;19.00;7.80;;;4.80;99.90;;;;;;5003112;28;20030;-80
2022/01/29 03:48:01;;;;;;;15.55;7.90;;;4.80;99.90;;;;;;5036681;28;20474;-79
2022/01/29 03:50:27;;;;;;;22.02;9.38;;;4.80;99.90;;;;;;5019764;28;20039;-79
2022/01/29 03:52:52;;;;;;;15.82;8.40;;;4.80;99.90;;;;;;5043059;28;20048;-80
2022/01/29 03:55:20;;;;;;;17.50;7.60;;;4.80;99.90;;;;;;5030822;28;20042;-80
2022/01/29 03:57:46;;;;;;;11.27;8.32;;;4.90;99.90;;;;;;5032411;28;20029;-79
2022/01/29 04:00:12;;;;;;;17.83;8.15;;;4.90;99.90;;;;;;5043706;28;20041;-80
2022/01/29 04:02:38;;;;;;;18.25;9.38;;;5.00;99.90;;;;;;5028130;28;20044;-79
2022/01/29 04:05:04;;;;;;;12.13;8.75;;;4.90;99.90;;;;;;5042327;28;20029;-78
2022/01/29 04:07:30;;;;;;;17.55;9.55;;;4.90;99.90;;;;;;5008404;28;20064;-79
2022/01/29 04:09:55;;;;;;;15.13;10.13;;;5.00;99.90;;;;;;5020905;28;20037;-78
2022/01/29 04:12:23;;;;;;;16.25;9.30;;;5.00;99.90;;;;;;5009939;28;20065;-79
2022/01/29 04:14:50;;;;;;;17.20;10.77;;;5.00;99.90;;;;;;5029578;28;20037;-79
2022/01/29 04:17:15;;;;;;;15.32;10.30;;;5.00;99.90;;;;;;5029241;28;20033;-78
2022/01/29 04:19:41;;;;;;;23.55;11.05;;;5.00;99.90;;;;;;5025054;28;20547;-80
2022/01/29 04:22:07;;;;;;;18.83;10.88;;;5.00;99.90;;;;;;5030553;28;20040;-79
2022/01/29 04:24:33;;;;;;;13.70;10.38;;;5.00;99.90;;;;;;5043389;28;20037;-79
2022/01/29 04:27:01;;;;;;;19.88;11.18;;;5.00;99.90;;;;;;5028870;28;20033;-80
2022/01/29 04:29:29;;;;;;;17.30;11.55;;;5.00;99.90;;;;;;5040627;28;20120;-81
2022/01/29 04:32:09;;;;;;;16.55;10.43;;;5.00;99.90;;;;;;5024682;28;20029;-79
2022/01/29 04:34:35;;;;;;;16.58;12.05;;;5.10;99.90;;;;;;5045854;28;20029;-79
2022/01/29 04:37:01;;;;;;;20.45;11.95;;;5.00;99.90;;;;;;5041734;28;20128;-79
2022/01/29 04:39:26;;;;;;;18.15;12.85;;;5.00;99.90;;;;;;5021507;28;20037;-79
2022/01/29 04:41:52;;;;;;;20.42;12.48;;;5.00;99.90;;;;;;4987965;28;20040;-80
2022/01/29 04:44:17;;;;;;;15.13;12.23;;;5.00;99.90;;;;;;5008312;28;20036;-79
2022/01/29 04:46:43;;;;;;;20.35;12.55;;;5.10;99.90;;;;;;5027399;28;20032;-79
2022/01/29 04:49:09;;;;;;;17.13;12.63;;;5.00;99.90;;;;;;5031333;28;20088;-79
2022/01/29 04:51:35;;;;;;;25.17;13.85;;;5.00;99.90;;;;;;5029857;28;20041;-79
2022/01/29 04:54:00;;;;;;;21.85;13.65;;;5.00;99.90;;;;;;5030665;28;20033;-80
2022/01/29 04:56:26;;;;;;;19.42;13.13;;;5.00;99.90;;;;;;5047731;28;20037;-81
2022/01/29 04:58:51;;;;;;;22.98;13.40;;;5.00;99.90;;;;;;5027752;28;20037;-80
2022/01/29 05:01:17;;;;;;;23.40;13.88;;;5.10;99.90;;;;;;5025876;28;20041;-81
2022/01/29 05:03:42;;;;;;;23.30;13.63;;;5.10;99.90;;;;;;5022433;28;20385;-82
2022/01/29 05:06:09;;;;;;;20.92;13.45;;;5.10;99.90;;;;;;5039778;28;20040;-82
2022/01/29 05:08:39;;;;;;;22.52;13.55;;;5.10;99.90;;;;;;5008023;28;20037;-83
2022/01/29 05:11:06;;;;;;;21.25;13.27;;;5.10;99.90;;;;;;5040108;28;20025;-82
2022/01/29 05:13:36;;;;;;;25.05;13.55;;;5.10;99.90;;;;;;5020271;28;20061;-81
2022/01/29 05:26:55;;;;;;;21.35;12.63;;;5.30;99.90;;;;;;5042478;28;20032;-83
2022/01/29 05:29:20;;;;;;;18.42;12.05;;;5.30;99.90;;;;;;5025683;28;20040;-82
2022/01/29 05:31:51;;;;;;;17.17;11.77;;;5.20;99.90;;;;;;5040168;28;20480;-80
2022/01/29 05:34:16;;;;;;;19.77;12.23;;;5.20;99.90;;;;;;5043140;28;20125;-80
2022/01/29 05:36:42;;;;;;;21.48;11.75;;;5.20;99.90;;;;;;5029099;28;20044;-80
2022/01/29 05:39:07;;;;;;;21.25;13.18;;;5.20;99.90;;;;;;5023821;28;20033;-80
2022/01/29 05:41:33;;;;;;;17.33;11.85;;;5.20;99.90;;;;;;5007961;28;20496;-80
2022/01/29 05:43:58;;;;;;;25.60;13.75;;;5.20;99.90;;;;;;5040586;28;20349;-79
2022/01/29 05:46:24;;;;;;;22.08;12.77;;;5.10;99.90;;;;;;5043841;28;20036;-80
2022/01/29 05:48:50;;;;;;;25.20;13.95;;;5.10;99.90;;;;;;5045105;28;20055;-79
2022/01/29 05:51:15;;;;;;;21.23;13.60;;;5.00;99.90;;;;;;5045113;28;20025;-80
2022/01/29 05:53:41;;;;;;;20.70;13.77;;;5.00;99.90;;;;;;5044046;28;20033;-80
2022/01/29 05:56:07;;;;;;;22.25;13.57;;;5.00;99.90;;;;;;5025158;28;20102;-79
2022/01/29 05:58:33;;;;;;;20.98;13.65;;;4.90;99.90;;;;;;5041778;28;20068;-79
2022/01/29 06:00:59;;;;;;;18.77;13.40;;;4.80;99.90;;;;;;5027245;28;20037;-79
2022/01/29 06:03:25;;;;;;;21.65;13.95;;;4.80;99.90;;;;;;5029644;28;20041;-77
2022/01/29 06:05:51;;;;;;;22.60;15.35;;;4.80;99.90;;;;;;5024792;28;20102;-78
2022/01/29 06:08:16;;;;;;;22.17;14.48;;;4.80;99.90;;;;;;4990961;28;20037;-80
2022/01/29 06:10:42;;;;;;;24.15;13.90;;;4.80;99.90;;;;;;5009380;28;20112;-80
2022/01/29 06:13:10;;;;;;;21.63;13.07;;;4.80;99.90;;;;;;5023874;28;20041;-81
2022/01/29 06:15:49;;;;;;;19.90;13.38;;;4.80;99.90;;;;;;5025230;28;20120;-81
2022/01/29 06:18:18;;;;;;;24.33;14.85;;;4.80;99.90;;;;;;5044589;28;20033;-79
2022/01/29 06:20:49;;;;;;;20.10;13.43;;;4.70;99.90;;;;;;5028483;28;20033;-81
2022/01/29 06:23:17;;;;;;;21.33;13.77;;;4.70;99.90;;;;;;5056318;28;20055;-81
2022/01/29 06:25:43;;;;;;;21.67;13.88;;;4.70;99.90;;;;;;5057505;28;20033;-79
2022/01/29 06:28:09;;;;;;;20.33;14.40;;;4.70;99.90;;;;;;5027312;28;20389;-80
2022/01/29 06:30:35;;;;;;;21.70;14.32;;;4.70;99.90;;;;;;5041911;28;20064;-80
2022/01/29 06:33:08;;;;;;;21.25;14.35;;;4.70;99.90;;;;;;5016295;28;20471;-79
2022/01/29 06:35:36;;;;;;;22.13;15.02;;;4.70;99.90;;;;;;5058766;28;20118;-81
2022/01/29 06:38:02;;;;;;;24.13;14.57;;;4.70;99.90;;;;;;5039891;28;20075;-80
2022/01/29 06:40:27;;;;;;;19.95;14.00;;;4.60;99.90;;;;;;5021003;28;20033;-80
2022/01/29 06:42:53;;;;;;;19.25;13.80;;;4.60;99.90;;;;;;5020214;28;20033;-82
2022/01/29 06:45:18;;;;;;;23.25;15.55;;;4.60;99.90;;;;;;5035914;28;20646;-82
2022/01/29 06:47:44;;;;;;;20.92;13.40;;;4.70;99.90;;;;;;5004012;28;20037;-80
2022/01/29 06:50:10;;;;;;;24.75;14.70;;;4.70;99.90;;;;;;5019064;28;20033;-81
2022/01/29 06:52:35;;;;;;;20.73;14.82;;;4.70;99.90;;;;;;5020493;28;20484;-79
2022/01/29 06:55:01;;;;;;;21.13;14.38;;;4.70;99.90;;;;;;5041117;28;20120;-80
2022/01/29 06:57:27;;;;;;;21.45;14.77;;;4.70;99.90;;;;;;5039504;28;20159;-81
2022/01/29 06:59:55;;;;;;;25.42;15.13;;;4.70;99.90;;;;;;5025209;28;20048;-82
2022/01/29 07:02:21;;;;;;;23.52;15.35;;;4.70;99.90;;;;;;5010767;28;20404;-82
2022/01/29 07:04:47;;;;;;;21.65;14.60;;;4.70;99.90;;;;;;5024204;28;20033;-84
2022/01/29 07:07:12;;;;;;;22.27;15.00;;;4.70;99.90;;;;;;5021093;28;20037;-82
2022/01/29 07:09:38;;;;;;;25.65;15.70;;;4.80;99.90;;;;;;5019231;28;20389;-80
2022/01/29 07:12:09;;;;;;;25.63;15.35;;;4.80;99.90;;;;;;5036980;28;20025;-83
2022/01/29 07:14:39;;;;;;;22.08;14.90;;;4.80;99.90;;;;;;5021673;28;20080;-84
2022/01/29 07:17:10;;;;;;;24.13;15.02;;;4.80;99.90;;;;;;5018238;28;20037;-83
2022/01/29 07:19:36;;;;;;;23.80;14.32;;;4.90;99.90;;;;;;5017843;28;20036;-81
2022/01/29 07:22:02;;;;;;;22.23;14.07;;;4.90;99.90;;;;;;5038621;28;20071;-83
2022/01/29 07:24:27;;;;;;;22.83;13.85;;;4.90;99.90;;;;;;5039509;28;20044;-82
2022/01/29 07:26:53;;;;;;;27.15;15.07;;;5.00;99.90;;;;;;5043919;28;20055;-84
2022/01/29 07:29:18;;;;;;;24.13;12.88;;;5.00;99.90;;;;;;5025528;28;20028;-83
2022/01/29 07:31:44;;;;;;;22.08;13.73;;;5.00;99.90;;;;;;5039420;28;20037;-84
2022/01/29 07:34:10;;;;;;;21.35;13.90;;;5.00;99.90;;;;;;5038728;28;20072;-83
2022/01/29 07:36:35;;;;;;;21.38;12.93;;;5.00;99.90;;;;;;5045066;28;20036;-85
2022/01/29 07:39:03;;;;;;;20.08;14.10;;;5.00;99.90;;;;;;5044696;28;20079;-84
2022/01/29 07:41:29;;;;;;;22.05;13.93;;;5.00;99.90;;;;;;5049211;28;20039;-83
2022/01/29 07:43:55;;;;;;;20.00;13.18;;;5.10;99.90;;;;;;5024021;28;20037;-85
2022/01/29 07:46:20;;;;;;;20.08;13.35;;;5.10;99.90;;;;;;5023655;28;20044;-83
2022/01/29 07:48:46;;;;;;;27.48;15.77;;;5.10;99.90;;;;;;5029851;28;20037;-81
2022/01/29 07:51:11;;;;;;;23.65;14.25;;;5.00;99.90;;;;;;5032225;28;20112;-82
2022/01/29 07:53:37;;;;;;;21.50;13.50;;;5.10;99.90;;;;;;5031677;28;20388;-81
2022/01/29 07:56:03;;;;;;;23.75;14.80;;;5.00;99.90;;;;;;5028205;28;20045;-84
2022/01/29 07:58:29;;;;;;;23.02;15.00;;;5.20;99.90;;;;;;5019213;28;20032;-85
2022/01/29 08:00:54;;;;;;;20.60;14.15;;;5.10;99.90;;;;;;5039314;28;20085;-82
2022/01/29 08:03:20;;;;;;;22.85;14.48;;;5.10;99.90;;;;;;5028458;28;20036;-80
2022/01/29 08:05:46;;;;;;;23.08;14.80;;;5.10;99.90;;;;;;5029019;28;20435;-81
2022/01/29 08:08:11;;;;;;;21.98;14.25;;;5.20;99.90;;;;;;5020251;28;20028;-81
2022/01/29 08:10:37;;;;;;;22.13;14.55;;;5.20;99.90;;;;;;5021741;28;20021;-82
2022/01/29 08:13:02;;;;;;;22.23;15.10;;;5.30;99.90;;;;;;5023702;28;20124;-82
2022/01/29 08:15:28;;;;;;;21.90;14.30;;;5.20;99.90;;;;;;5010250;28;20033;-83
2022/01/29 08:17:54;;;;;;;23.13;14.70;;;5.20;99.90;;;;;;5033737;28;20135;-84
2022/01/29 08:20:19;;;;;;;24.30;13.90;;;5.30;99.90;;;;;;5033424;28;20089;-83
2022/01/29 08:22:48;;;;;;;22.20;14.15;;;5.30;99.90;;;;;;5024486;28;20490;-83
2022/01/29 08:25:18;;;;;;;23.92;15.05;;;5.30;99.90;;;;;;5066818;28;20111;-83
2022/01/29 08:27:46;;;;;;;21.42;14.43;;;5.30;99.90;;;;;;5023388;28;20487;-85
2022/01/29 08:30:15;;;;;;;20.42;13.93;;;5.40;99.90;;;;;;5025750;28;20081;-81
2022/01/29 08:32:42;;;;;;;22.08;14.98;;;5.30;99.90;;;;;;5039022;28;20040;-81
2022/01/29 08:35:14;;;;;;;25.60;13.60;;;5.30;99.90;;;;;;5040220;28;20048;-79
2022/01/29 08:37:40;;;;;;;21.33;13.88;;;5.40;99.90;;;;;;5038291;28;20034;-82
2022/01/29 08:40:16;;;;;;;20.48;13.10;;;5.40;99.90;;;;;;5044821;28;20107;-83
2022/01/29 08:42:45;;;;;;;20.73;13.18;;;5.50;99.90;;;;;;5047122;28;20060;-83
2022/01/29 08:45:13;;;;;;;19.88;13.10;;;5.50;99.90;;;;;;5051192;28;20029;-84
2022/01/29 08:47:40;;;;;;;22.10;13.55;;;5.50;99.90;;;;;;5054188;28;20051;-84
2022/01/29 08:50:06;;;;;;;20.58;13.60;;;5.60;99.90;;;;;;5059018;28;20077;-85
2022/01/29 08:52:32;;;;;;;19.80;13.55;;;5.60;99.90;;;;;;5038210;28;20037;-82
2022/01/29 08:54:58;;;;;;;18.33;12.85;;;5.60;99.90;;;;;;5015139;28;20026;-82
2022/01/29 08:57:24;;;;;;;20.67;11.90;;;5.70;99.90;;;;;;5037447;28;20034;-82
2022/01/29 08:59:49;;;;;;;18.48;12.32;;;5.70;99.90;;;;;;5040717;28;20031;-83
2022/01/29 09:02:15;;;;;;;16.45;12.07;;;5.80;99.90;;;;;;5043166;28;20028;-84
2022/01/29 09:04:40;;;;;;;16.67;11.48;;;5.80;99.90;;;;;;5026008;28;20036;-83
2022/01/29 09:07:06;;;;;;;16.17;11.50;;;5.80;99.90;;;;;;5025308;28;20060;-82
2022/01/29 09:09:32;;;;;;;18.13;11.27;;;5.70;99.90;;;;;;5039431;28;20036;-82
2022/01/29 09:11:58;;;;;;;18.58;10.50;;;5.80;99.90;;;;;;5025778;28;20036;-83
2022/01/29 09:14:24;;;;;;;13.88;9.65;;;5.80;99.90;;;;;;5022984;28;20091;-82
2022/01/29 09:16:50;;;;;;;14.25;9.88;;;5.90;99.90;;;;;;5024426;28;20041;-82
2022/01/29 09:19:18;;;;;;;16.83;10.57;;;5.90;99.90;;;;;;5028471;28;20057;-84
2022/01/29 09:21:44;;;;;;;14.05;10.05;;;5.90;99.90;;;;;;5026697;28;20037;-83
2022/01/29 09:24:10;;;;;;;16.05;10.43;;;5.90;99.90;;;;;;5028134;28;20091;-84
2022/01/29 09:26:39;;;;;;;13.98;9.85;;;5.90;99.90;;;;;;5043552;28;20031;-85
2022/01/29 09:29:04;;;;;;;13.27;9.68;;;5.90;99.90;;;;;;5023678;28;20034;-86
2022/01/29 09:31:30;;;;;;;13.45;9.57;;;5.90;99.90;;;;;;5030950;28;20028;-85
2022/01/29 09:33:57;;;;;;;13.35;9.45;;;6.00;99.90;;;;;;5026015;28;20322;-84
2022/01/29 09:36:23;;;;;;;13.40;9.35;;;6.00;99.90;;;;;;5025475;28;20033;-85
2022/01/29 09:38:48;;;;;;;16.35;10.10;;;6.10;99.90;;;;;;5029660;28;20146;-85
2022/01/29 09:41:16;;;;;;;13.48;9.23;;;6.10;99.90;;;;;;5061139;28;20047;-84
2022/01/29 09:43:43;;;;;;;13.18;8.68;;;6.10;99.90;;;;;;5063368;28;20064;-86
2022/01/29 09:46:09;;;;;;;11.95;8.05;;;6.20;99.90;;;;;;5026911;28;20029;-84
2022/01/29 09:48:36;;;;;;;11.38;8.15;;;6.10;99.90;;;;;;5058574;28;20032;-84
2022/01/29 09:51:05;;;;;;;10.90;8.05;;;6.20;99.90;;;;;;5046158;28;20033;-85
2022/01/29 09:53:30;;;;;;;11.93;8.45;;;6.30;99.90;;;;;;5042180;28;20064;-83
2022/01/29 09:55:59;;;;;;;9.55;7.30;;;6.30;99.90;;;;;;5010450;28;20047;-83
2022/01/29 09:58:25;;;;;;;10.77;7.90;;;6.20;99.90;;;;;;5059390;28;20025;-82
2022/01/29 10:00:56;;;;;;;9.93;7.13;;;6.30;99.90;;;;;;5038336;28;20047;-86
2022/01/29 10:03:22;;;;;;;9.77;6.82;;;6.40;99.90;;;;;;5033921;28;20033;-82
2022/01/29 10:05:50;;;;;;;11.93;7.20;;;6.40;99.90;;;;;;5027961;28;20459;-83
2022/01/29 10:08:16;;;;;;;10.60;6.93;;;6.40;99.90;;;;;;5038165;28;20078;-83
2022/01/29 10:10:48;;;;;;;9.98;7.22;;;6.50;99.90;;;;;;5022747;28;20084;-83
2022/01/29 10:13:30;;;;;;;9.50;6.88;;;6.60;99.90;;;;;;5023344;28;20044;-83
2022/01/29 10:16:06;;;;;;;10.77;7.03;;;6.60;99.90;;;;;;5038985;28;20500;-82
2022/01/29 10:18:33;;;;;;;9.68;6.72;;;6.70;99.90;;;;;;5057196;28;20033;-84
2022/01/29 10:21:11;;;;;;;9.57;6.50;;;6.70;99.90;;;;;;5056924;28;20060;-84
2022/01/29 10:23:37;;;;;;;10.05;6.70;;;6.80;99.90;;;;;;5036494;28;20045;-83
2022/01/29 10:26:04;;;;;;;8.63;6.30;;;6.70;99.90;;;;;;5022159;28;20044;-82
2022/01/29 10:28:34;;;;;;;8.98;6.32;;;6.80;99.90;;;;;;5020555;28;20583;-82
2022/01/29 10:31:06;;;;;;;12.27;7.25;;;6.80;99.90;;;;;;5054346;28;20120;-83
2022/01/29 10:33:34;;;;;;;8.25;5.97;;;6.80;99.90;;;;;;5055074;28;20024;-83
2022/01/29 10:36:07;;;;;;;7.65;5.30;;;6.90;99.90;;;;;;5021444;28;20489;-81
2022/01/29 10:38:52;;;;;;;7.97;5.63;;;6.90;99.90;;;;;;5020482;28;20459;-81
2022/01/29 10:41:30;;;;;;;6.95;5.40;;;6.90;99.90;;;;;;5031295;28;20064;-83
2022/01/29 10:44:18;;;;;;;7.13;5.70;;;7.00;99.90;;;;;;5038073;28;20044;-84
2022/01/29 10:46:52;;;;;;;6.90;5.45;;;7.10;99.90;;;;;;5050898;28;20060;-81
2022/01/29 10:49:34;;;;;;;7.63;5.63;;;7.20;99.90;;;;;;5038306;28;20388;-83
2022/01/29 10:52:02;;;;;;;8.23;4.97;;;7.10;99.90;;;;;;5038941;28;20059;-83
2022/01/29 10:54:30;;;;;;;6.68;5.63;;;7.20;99.90;;;;;;5041074;28;20029;-81
2022/01/29 10:57:01;;;;;;;6.03;4.63;;;7.20;99.90;;;;;;5039073;28;20029;-85
2022/01/29 10:59:32;;;;;;;6.30;4.57;;;7.30;99.90;;;;;;5037326;28;20068;-81
2022/01/29 11:02:07;;;;;;;8.45;5.10;;;7.20;99.90;;;;;;5036916;28;20037;-83
2022/01/29 11:04:38;;;;;;;6.13;5.03;;;7.30;99.90;;;;;;5037163;28;20041;-83
2022/01/29 11:07:10;;;;;;;8.02;5.07;;;7.30;99.90;;;;;;5056753;28;20047;-84
2022/01/29 11:09:41;;;;;;;6.72;5.30;;;7.30;99.90;;;;;;5024543;28;20033;-81
2022/01/29 11:12:08;;;;;;;7.35;5.18;;;7.40;99.90;;;;;;5049953;28;20045;-82
2022/01/29 11:14:35;;;;;;;9.30;5.80;;;7.40;99.90;;;;;;5077226;28;20036;-81
2022/01/29 11:17:03;;;;;;;7.45;5.45;;;7.20;99.90;;;;;;5024884;28;20033;-84
2022/01/29 11:19:31;;;;;;;7.43;5.70;;;7.20;99.90;;;;;;5023110;28;20071;-82
2022/01/29 11:22:04;;;;;;;6.78;5.22;;;7.30;99.90;;;;;;5007459;28;20033;-85
2022/01/29 11:24:30;;;;;;;7.82;4.93;;;7.30;99.90;;;;;;5025188;28;20037;-83
2022/01/29 11:26:56;;;;;;;8.25;5.85;;;7.30;99.90;;;;;;5017966;28;20060;-86
2022/01/29 11:29:29;;;;;;;9.02;5.72;;;7.30;99.90;;;;;;5038876;28;20480;-85
2022/01/29 11:32:20;;;;;;;7.38;5.68;;;7.30;99.90;;;;;;5040216;28;20388;-85
2022/01/29 11:35:21;;;;;;;7.93;5.05;;;7.30;99.90;;;;;;5020124;28;20105;-82
2022/01/29 11:38:33;;;;;;;5.43;4.60;;;7.30;99.90;;;;;;5020752;28;20072;-84
2022/01/29 11:40:59;;;;;;;6.65;4.75;;;7.30;99.90;;;;;;5001649;28;20041;-83
2022/01/29 11:43:27;;;;;;;6.10;4.82;;;7.40;99.90;;;;;;5020965;28;20090;-83
2022/01/29 11:46:04;;;;;;;6.38;4.70;;;7.40;99.90;;;;;;5033920;28;20048;-82
2022/01/29 11:48:31;;;;;;;5.18;4.25;;;7.40;99.90;;;;;;5032363;28;20036;-79
2022/01/29 11:50:58;;;;;;;5.63;4.32;;;7.40;99.90;;;;;;5042220;28;20029;-81
2022/01/29 11:53:26;;;;;;;4.80;4.13;;;7.50;99.90;;;;;;5022758;28;20032;-82
2022/01/29 11:55:54;;;;;;;5.43;4.30;;;7.50;99.90;;;;;;5039863;28;20033;-83
2022/01/29 11:58:26;;;;;;;5.68;4.25;;;7.60;99.90;;;;;;5038030;28;20037;-83
2022/01/29 12:01:04;;;;;;;6.03;4.63;;;7.60;99.90;;;;;;5022471;28;20033;-83
2022/01/29 12:06:26;;;;;;;5.85;4.57;;;7.60;99.90;;;;;;5065215;28;20036;-85
2022/01/29 12:11:29;;;;;;;6.07;4.63;;;7.70;99.90;;;;;;5063359;28;20020;-82
2022/01/29 12:14:13;;;;;;;6.10;4.47;;;7.70;99.90;;;;;;5062742;28;20025;-86
2022/01/29 12:16:48;;;;;;;4.90;4.10;;;7.70;99.90;;;;;;5046170;28;20045;-80
2022/01/29 12:19:43;;;;;;;6.15;4.82;;;7.70;99.90;;;;;;5041189;28;20040;-82
2022/01/29 12:22:21;;;;;;;6.95;4.60;;;7.70;99.90;;;;;;5043609;28;20044;-82
2022/01/29 12:24:52;;;;;;;5.28;4.28;;;7.70;99.90;;;;;;5078365;28;20036;-83
2022/01/29 12:27:18;;;;;;;6.18;4.43;;;7.70;99.90;;;;;;5017556;28;20063;-80
2022/01/29 12:29:44;;;;;;;5.82;4.35;;;7.80;99.90;;;;;;5058203;28;20029;-86
2022/01/29 12:32:10;;;;;;;5.13;4.28;;;7.70;99.90;;;;;;5056613;28;20404;-81
2022/01/29 12:34:37;;;;;;;5.75;4.75;;;7.80;99.90;;;;;;5023408;28;20040;-84
2022/01/29 12:37:18;;;;;;;5.38;4.18;;;7.80;99.90;;;;;;5059824;28;20060;-83
2022/01/29 12:39:49;;;;;;;6.82;4.88;;;7.80;99.90;;;;;;5035863;28;20067;-81
2022/01/29 12:44:57;;;;;;;5.72;4.50;;;7.80;99.90;;;;;;5058019;28;20080;-81
2022/01/29 12:47:34;;;;;;;5.38;4.38;;;7.80;99.90;;;;;;5039405;28;20025;-82
2022/01/29 12:50:00;;;;;;;6.20;4.55;;;7.80;99.90;;;;;;5041134;28;20029;-79
2022/01/29 12:52:26;;;;;;;5.43;4.25;;;7.90;99.90;;;;;;5060774;28;20044;-78
2022/01/29 12:54:57;;;;;;;5.30;4.05;;;7.80;99.90;;;;;;5028730;28;20021;-79
2022/01/29 12:57:23;;;;;;;4.95;4.20;;;7.70;99.90;;;;;;5040008;28;20522;-80
2022/01/29 12:59:48;;;;;;;5.10;4.47;;;7.80;99.90;;;;;;5007239;28;20048;-82
2022/01/29 13:02:14;;;;;;;6.35;4.38;;;7.80;99.90;;;;;;5006963;28;20044;-79
2022/01/29 13:04:56;;;;;;;6.85;4.93;;;7.90;99.90;;;;;;5038683;28;20033;-82
2022/01/29 13:07:46;;;;;;;5.40;4.30;;;7.90;99.90;;;;;;5008059;28;20037;-83
2022/01/29 13:10:12;;;;;;;6.60;4.97;;;7.80;99.90;;;;;;5040583;28;20143;-82
2022/01/29 13:12:46;;;;;;;7.07;4.85;;;7.80;99.90;;;;;;5038638;28;20083;-83